createdAt,value
2019-02-22T00:01:31.588Z,22.93
2019-02-22T00:04:00.939Z,23.70
2019-02-22T00:06:30.274Z,21.90
2019-02-22T00:08:59.639Z,22.50
2019-02-22T00:11:28.978Z,21.77
2019-02-22T00:13:58.301Z,19.53
2019-02-22T00:16:27.670Z,20.37
2019-02-22T00:18:57.007Z,20.47
2019-02-22T00:21:26.350Z,20.33
2019-02-22T00:23:55.710Z,19.87
2019-02-22T00:26:25.055Z,19.90
2019-02-22T00:28:54.422Z,19.80
2019-02-22T00:31:23.819Z,19.50
2019-02-22T00:33:53.203Z,19.43
2019-02-22T00:36:22.564Z,19.07
2019-02-22T00:38:51.966Z,19.13
2019-02-22T00:41:21.382Z,19.87
2019-02-22T00:43:50.719Z,19.57
2019-02-22T00:46:20.093Z,19.50
2019-02-22T00:48:49.422Z,19.73
2019-02-22T00:51:18.763Z,19.77
2019-02-22T00:53:48.125Z,20.60
2019-02-22T00:56:17.466Z,19.40
2019-02-22T00:58:46.814Z,21.03
2019-02-22T01:01:16.161Z,19.83
2019-02-22T01:03:45.506Z,20.33
2019-02-22T01:06:14.846Z,21.57
2019-02-22T01:08:44.279Z,21.37
2019-02-22T01:11:13.617Z,21.07
2019-02-22T01:13:42.959Z,21.67
2019-02-22T01:16:12.337Z,22.90
2019-02-22T01:18:41.662Z,20.47
2019-02-22T01:21:10.997Z,22.63
2019-02-22T01:23:40.358Z,21.73
2019-02-22T01:26:09.698Z,22.10
2019-02-22T01:28:39.041Z,22.07
2019-02-22T01:31:08.405Z,22.93
2019-02-22T01:33:37.747Z,23.73
2019-02-22T01:36:07.082Z,21.53
2019-02-22T01:38:36.447Z,22.10
2019-02-22T01:41:05.774Z,22.97
2019-02-22T01:43:35.104Z,22.77
2019-02-22T01:46:04.476Z,22.23
2019-02-22T01:48:33.809Z,23.07
2019-02-22T01:51:03.151Z,24.77
2019-02-22T01:53:32.509Z,23.60
2019-02-22T01:56:01.848Z,22.50
2019-02-22T01:58:31.173Z,21.27
2019-02-22T02:01:00.549Z,21.27
2019-02-22T02:03:29.886Z,20.80
2019-02-22T02:05:59.225Z,20.80
2019-02-22T02:08:28.601Z,21.37
2019-02-22T02:10:57.933Z,20.27
2019-02-22T02:13:27.265Z,20.97
2019-02-22T02:15:56.636Z,20.20
2019-02-22T02:18:25.971Z,18.60
2019-02-22T02:20:55.399Z,17.97
2019-02-22T02:23:24.749Z,17.17
2019-02-22T02:25:54.081Z,17.77
2019-02-22T02:28:23.420Z,17.43
2019-02-22T02:30:52.794Z,16.57
2019-02-22T02:33:22.131Z,12.83
2019-02-22T02:35:51.472Z,12.73
2019-02-22T02:38:20.826Z,11.70
2019-02-22T02:40:50.157Z,10.40
2019-02-22T02:43:19.490Z,9.87
2019-02-22T02:45:48.603Z,9.43
2019-02-22T02:48:17.838Z,8.83
2019-02-22T02:50:47.163Z,8.93
2019-02-22T02:53:16.190Z,6.80
2019-02-22T02:55:45.102Z,6.33
2019-02-22T02:58:14.342Z,6.40
2019-02-22T03:00:43.370Z,5.57
2019-02-22T03:03:12.234Z,4.77
2019-02-22T03:05:52.151Z,4.83
2019-02-22T03:08:21.810Z,4.90
2019-02-22T03:10:50.718Z,4.97
2019-02-22T03:13:19.988Z,4.63
2019-02-22T03:15:48.985Z,5.20
2019-02-22T03:18:18.225Z,6.03
2019-02-22T03:20:47.588Z,5.20
2019-02-22T03:23:16.907Z,5.57
2019-02-22T03:25:46.230Z,6.00
2019-02-22T03:28:15.274Z,6.17
2019-02-22T03:30:44.504Z,6.47
2019-02-22T03:33:13.924Z,6.93
2019-02-22T03:35:43.361Z,9.37
2019-02-22T03:38:12.347Z,10.10
2019-02-22T03:40:41.587Z,10.37
2019-02-22T03:43:10.614Z,10.43
2019-02-22T03:45:39.882Z,10.93
2019-02-22T03:48:09.203Z,10.83
2019-02-22T03:50:38.567Z,11.33
2019-02-22T03:53:11.950Z,11.33
2019-02-22T03:55:40.859Z,12.00
2019-02-22T03:58:09.874Z,9.50
2019-02-22T04:00:38.782Z,10.77
2019-02-22T04:03:08.115Z,11.60
2019-02-22T04:05:37.133Z,12.10
2019-02-22T04:08:07.268Z,11.67
2019-02-22T04:10:36.694Z,10.60
2019-02-22T04:13:06.110Z,11.80
2019-02-22T04:15:35.453Z,12.33
2019-02-22T04:18:04.459Z,11.93
2019-02-22T04:20:33.734Z,13.13
2019-02-22T04:23:03.071Z,12.17
2019-02-22T04:25:32.405Z,13.50
2019-02-22T04:28:01.963Z,13.40
2019-02-22T04:30:31.383Z,12.80
2019-02-22T04:33:00.720Z,12.77
2019-02-22T04:35:30.081Z,13.20
2019-02-22T04:37:59.417Z,13.13
2019-02-22T04:40:28.432Z,12.83
2019-02-22T04:42:57.702Z,13.83
2019-02-22T04:45:27.039Z,12.97
2019-02-22T04:47:56.384Z,15.83
2019-02-22T04:50:25.746Z,14.13
2019-02-22T04:52:55.079Z,15.50
2019-02-22T04:55:24.421Z,16.80
2019-02-22T04:57:53.782Z,15.37
2019-02-22T05:00:23.118Z,15.73
2019-02-22T05:02:52.450Z,14.93
2019-02-22T05:05:21.812Z,15.43
2019-02-22T05:07:51.139Z,15.10
2019-02-22T05:10:20.476Z,15.00
2019-02-22T05:12:49.847Z,15.47
2019-02-22T05:15:19.186Z,13.43
2019-02-22T05:17:48.521Z,11.37
2019-02-22T05:20:17.555Z,11.33
2019-02-22T05:22:46.466Z,11.70
2019-02-22T05:25:15.710Z,11.13
2019-02-22T05:27:45.065Z,11.93
2019-02-22T05:30:14.408Z,12.13
2019-02-22T05:32:43.411Z,11.27
2019-02-22T05:35:12.761Z,11.43
2019-02-22T05:37:42.087Z,10.63
2019-02-22T05:40:11.422Z,11.47
2019-02-22T05:42:40.458Z,12.17
2019-02-22T05:45:09.367Z,11.90
2019-02-22T05:47:38.605Z,12.30
2019-02-22T05:50:07.640Z,12.77
2019-02-22T05:52:36.547Z,12.53
2019-02-22T05:55:06.339Z,12.67
2019-02-22T05:57:35.401Z,12.40
2019-02-22T06:00:05.821Z,11.33
2019-02-22T06:02:34.730Z,9.93
2019-02-22T06:05:03.925Z,9.63
2019-02-22T06:07:32.835Z,8.33
2019-02-22T06:10:02.070Z,8.13
2019-02-22T06:12:34.423Z,8.03
2019-02-22T06:15:01.703Z,8.07
2019-02-22T06:17:30.619Z,6.80
2019-02-22T06:19:59.557Z,7.77
2019-02-22T06:22:29.988Z,7.67
2019-02-22T06:24:59.497Z,7.20
2019-02-22T06:27:28.850Z,6.00
2019-02-22T06:29:57.842Z,5.70
2019-02-22T06:32:26.748Z,5.77
2019-02-22T06:34:56.009Z,5.80
2019-02-22T06:37:25.334Z,4.93
2019-02-22T06:39:54.755Z,5.07
2019-02-22T06:42:24.110Z,4.93
2019-02-22T06:44:53.425Z,5.25
2019-02-22T06:47:23.009Z,4.67
2019-02-22T06:49:52.394Z,4.17
2019-02-22T06:52:21.706Z,3.83
2019-02-22T06:54:51.027Z,3.60
2019-02-22T06:57:20.374Z,3.70
2019-02-22T06:59:49.702Z,3.53
2019-02-22T07:02:19.034Z,4.23
2019-02-22T07:04:48.072Z,4.50
2019-02-22T07:07:17.290Z,4.03
2019-02-22T07:09:46.295Z,4.47
2019-02-22T07:12:22.962Z,4.33
2019-02-22T07:14:52.331Z,4.63
2019-02-22T07:17:21.660Z,4.67
2019-02-22T07:19:50.682Z,4.33
2019-02-22T07:22:19.930Z,4.17
2019-02-22T07:24:48.924Z,4.70
2019-02-22T07:27:17.860Z,4.83
2019-02-22T07:29:46.770Z,3.80
2019-02-22T07:32:16.013Z,4.37
2019-02-22T07:34:45.034Z,4.83
2019-02-22T07:37:14.285Z,3.90
2019-02-22T07:39:43.597Z,3.57
2019-02-22T07:42:12.971Z,4.07
2019-02-22T07:44:42.307Z,5.90
2019-02-22T07:47:11.644Z,3.40
2019-02-22T07:49:40.661Z,3.70
2019-02-22T07:52:09.905Z,3.37
2019-02-22T07:54:40.779Z,3.43
2019-02-22T07:57:10.141Z,3.83
2019-02-22T07:59:39.459Z,3.47
2019-02-22T08:02:08.472Z,4.03
2019-02-22T08:04:37.393Z,3.70
2019-02-22T08:07:06.626Z,3.80
2019-02-22T08:09:35.626Z,3.57
2019-02-22T08:12:04.946Z,3.10
2019-02-22T08:14:34.269Z,2.73
2019-02-22T08:17:03.589Z,3.00
2019-02-22T08:19:32.605Z,2.77
2019-02-22T08:22:03.574Z,3.00
2019-02-22T08:24:32.716Z,3.03
2019-02-22T08:27:01.979Z,3.13
2019-02-22T08:29:30.966Z,2.90
2019-02-22T08:32:00.213Z,3.13
2019-02-22T08:34:29.563Z,5.57
2019-02-22T08:36:58.550Z,5.00
2019-02-22T08:39:27.780Z,3.40
2019-02-22T08:41:56.809Z,3.70
2019-02-22T08:44:25.705Z,3.10
2019-02-22T08:46:54.611Z,4.57
2019-02-22T08:49:23.551Z,4.13
2019-02-22T08:51:52.449Z,3.70
2019-02-22T08:54:21.690Z,2.93
2019-02-22T08:56:51.037Z,2.47
2019-02-22T08:59:20.366Z,6.00
2019-02-22T09:01:49.693Z,6.63
2019-02-22T09:04:18.722Z,7.60
2019-02-22T09:06:47.957Z,3.43
2019-02-22T09:09:17.025Z,3.23
2019-02-22T09:11:46.294Z,3.83
2019-02-22T09:14:15.614Z,3.00
2019-02-22T09:16:44.614Z,2.80
2019-02-22T09:19:13.890Z,3.33
2019-02-22T09:21:43.210Z,3.27
2019-02-22T09:24:12.212Z,2.87
2019-02-22T09:26:41.150Z,2.67
2019-02-22T09:29:10.386Z,2.73
2019-02-22T09:31:39.374Z,1.93
2019-02-22T09:34:08.309Z,2.57
2019-02-22T09:36:37.557Z,2.47
2019-02-22T09:39:07.241Z,2.30
2019-02-22T09:41:36.594Z,2.70
2019-02-22T09:44:05.918Z,2.70
2019-02-22T09:46:35.241Z,3.00
2019-02-22T09:49:04.682Z,6.70
2019-02-22T09:51:33.687Z,5.33
2019-02-22T09:54:02.995Z,4.80
2019-02-22T09:56:32.352Z,3.97
2019-02-22T09:59:01.678Z,4.10
2019-02-22T10:01:31.006Z,3.47
2019-02-22T10:04:00.379Z,3.07
2019-02-22T10:06:29.698Z,3.60
2019-02-22T10:08:59.022Z,3.43
2019-02-22T10:11:28.383Z,2.90
2019-02-22T10:14:06.278Z,2.63
2019-02-22T10:16:28.810Z,2.50
2019-02-22T10:18:58.162Z,2.40
2019-02-22T10:21:27.485Z,2.80
2019-02-22T10:23:56.815Z,1.97
2019-02-22T10:26:26.167Z,2.10
2019-02-22T10:28:55.501Z,2.00
2019-02-22T10:31:24.829Z,1.90
2019-02-22T10:33:54.183Z,2.10
2019-02-22T10:36:23.509Z,2.03
2019-02-22T10:38:52.837Z,2.20
2019-02-22T10:41:22.203Z,1.87
2019-02-22T10:43:51.525Z,2.10
2019-02-22T10:46:22.205Z,2.30
2019-02-22T10:48:52.101Z,1.90
2019-02-22T10:51:21.593Z,2.47
2019-02-22T10:53:50.926Z,2.67
2019-02-22T10:56:20.283Z,2.40
2019-02-22T10:58:49.616Z,2.37
2019-02-22T11:01:18.937Z,1.80
2019-02-22T11:03:53.261Z,1.70
2019-02-22T11:06:22.589Z,2.70
2019-02-22T11:08:51.918Z,2.30
2019-02-22T11:11:21.274Z,1.80
2019-02-22T11:13:55.546Z,2.30
2019-02-22T11:16:44.233Z,1.93
2019-02-22T11:19:13.563Z,2.27
2019-02-22T11:21:42.882Z,2.17
2019-02-22T11:24:12.243Z,2.20
2019-02-22T11:26:41.638Z,2.10
2019-02-22T11:29:10.969Z,2.10
2019-02-22T11:31:40.326Z,2.20
2019-02-22T11:34:09.654Z,2.90
2019-02-22T11:36:38.995Z,7.77
2019-02-22T11:39:08.378Z,6.67
2019-02-22T11:41:37.698Z,3.50
2019-02-22T11:44:07.030Z,3.57
2019-02-22T11:46:36.382Z,5.67
2019-02-22T11:49:06.073Z,5.90
2019-02-22T11:51:35.404Z,4.73
2019-02-22T11:54:04.754Z,4.10
2019-02-22T11:56:34.082Z,3.63
2019-02-22T11:59:03.393Z,3.50
2019-02-22T12:01:32.750Z,3.17
2019-02-22T12:04:02.085Z,7.73
2019-02-22T12:06:31.415Z,9.40
2019-02-22T12:09:00.850Z,3.73
2019-02-22T12:11:30.173Z,5.77
2019-02-22T12:13:59.497Z,3.30
2019-02-22T12:16:28.869Z,5.37
2019-02-22T12:18:58.196Z,2.93
2019-02-22T12:21:27.525Z,2.27
2019-02-22T12:23:56.871Z,2.50
2019-02-22T12:26:26.377Z,2.57
2019-02-22T12:28:55.711Z,2.43
2019-02-22T12:31:44.399Z,2.60
2019-02-22T12:34:13.728Z,2.30
2019-02-22T12:36:43.052Z,2.17
2019-02-22T12:39:12.561Z,2.37
2019-02-22T12:41:41.885Z,2.30
2019-02-22T12:44:11.210Z,2.40
2019-02-22T12:46:40.564Z,2.40
2019-02-22T12:49:09.888Z,2.50
2019-02-22T12:51:39.219Z,2.27
2019-02-22T12:54:08.569Z,5.67
2019-02-22T12:56:57.050Z,2.80
2019-02-22T12:59:08.913Z,3.30
2019-02-22T13:01:38.285Z,8.23
2019-02-22T13:04:07.601Z,3.17
2019-02-22T13:06:36.926Z,4.00
2019-02-22T13:09:07.014Z,4.10
2019-02-22T13:11:36.335Z,3.53
2019-02-22T13:14:05.666Z,2.80
2019-02-22T13:16:35.048Z,2.60
2019-02-22T13:19:04.375Z,2.43
2019-02-22T13:21:33.707Z,2.50
2019-02-22T13:24:03.129Z,2.93
2019-02-22T13:26:32.446Z,3.13
2019-02-22T13:29:01.771Z,2.50
2019-02-22T13:31:31.139Z,2.50
2019-02-22T13:34:00.451Z,3.53
2019-02-22T13:36:42.642Z,2.33
2019-02-22T13:39:12.025Z,2.40
2019-02-22T13:41:41.346Z,2.00
2019-02-22T13:44:10.762Z,1.83
2019-02-22T13:46:40.086Z,2.40
2019-02-22T13:49:09.481Z,2.23
2019-02-22T13:51:58.174Z,2.20
2019-02-22T13:54:27.502Z,2.73
2019-02-22T13:56:56.826Z,3.47
2019-02-22T13:59:26.310Z,5.87
2019-02-22T14:01:55.654Z,3.50
2019-02-22T14:04:24.971Z,3.90
2019-02-22T14:06:54.325Z,3.37
2019-02-22T14:09:23.650Z,4.23
2019-02-22T14:11:52.982Z,7.50
2019-02-22T14:14:22.347Z,10.20
2019-02-22T14:16:51.689Z,3.30
2019-02-22T14:19:21.026Z,2.27
2019-02-22T14:22:09.760Z,3.50
2019-02-22T14:24:39.080Z,4.00
2019-02-22T14:27:08.397Z,6.60
2019-02-22T14:29:37.759Z,5.53
2019-02-22T14:32:07.082Z,16.47
2019-02-22T14:34:36.411Z,6.13
2019-02-22T14:37:05.943Z,7.07
2019-02-22T14:39:35.290Z,8.73
2019-02-22T14:42:04.694Z,8.97
2019-02-22T14:44:34.034Z,6.10
2019-02-22T14:47:03.371Z,6.63
2019-02-22T14:49:32.689Z,8.93
2019-02-22T14:52:02.057Z,5.00
2019-02-22T14:54:31.378Z,2.47
2019-02-22T14:57:00.711Z,3.70
2019-02-22T14:59:30.063Z,2.87
2019-02-22T15:01:59.387Z,3.30
2019-02-22T15:04:28.715Z,2.73
2019-02-22T15:06:58.076Z,2.47
2019-02-22T15:09:27.393Z,2.33
2019-02-22T15:11:56.717Z,2.83
2019-02-22T15:14:26.071Z,2.40
2019-02-22T15:17:13.433Z,2.43
2019-02-22T15:19:42.785Z,2.20
2019-02-22T15:22:12.111Z,3.33
2019-02-22T15:24:41.435Z,2.43
2019-02-22T15:27:10.777Z,2.17
2019-02-22T15:29:40.110Z,2.67
2019-02-22T15:32:09.423Z,3.90
2019-02-22T15:34:38.782Z,7.50
2019-02-22T15:37:08.102Z,5.70
2019-02-22T15:39:37.439Z,10.00
2019-02-22T15:42:06.799Z,7.70
2019-02-22T15:44:36.128Z,8.13
2019-02-22T15:47:11.677Z,7.37
2019-02-22T15:49:36.507Z,14.73
2019-02-22T15:52:05.843Z,14.77
2019-02-22T15:54:35.166Z,3.87
2019-02-22T15:57:04.520Z,4.63
2019-02-22T15:59:33.837Z,3.70
2019-02-22T16:02:03.172Z,2.93
2019-02-22T16:04:45.073Z,2.90
2019-02-22T16:07:14.038Z,3.03
2019-02-22T16:09:43.350Z,2.70
2019-02-22T16:12:12.720Z,2.80
2019-02-22T16:14:42.102Z,3.20
2019-02-22T16:17:11.418Z,2.67
2019-02-22T16:19:40.774Z,2.30
2019-02-22T16:22:10.096Z,3.07
2019-02-22T16:24:39.419Z,3.03
2019-02-22T16:27:08.778Z,2.80
2019-02-22T16:29:38.103Z,2.50
2019-02-22T16:32:07.422Z,4.40
2019-02-22T16:34:43.398Z,12.80
2019-02-22T16:37:07.801Z,6.03
2019-02-22T16:39:37.138Z,12.00
2019-02-22T16:42:06.502Z,14.43
2019-02-22T16:44:35.821Z,24.60
2019-02-22T16:47:05.152Z,10.57
2019-02-22T16:49:34.514Z,17.63
2019-02-22T16:52:03.842Z,37.00
2019-02-22T16:54:33.180Z,22.63
2019-02-22T16:57:02.529Z,26.27
2019-02-22T16:59:31.850Z,8.63
2019-02-22T17:02:01.178Z,4.73
2019-02-22T17:04:30.550Z,9.10
2019-02-22T17:06:59.882Z,7.50
2019-02-22T17:09:29.209Z,7.67
2019-02-22T17:12:06.132Z,6.20
2019-02-22T17:14:29.598Z,6.30
2019-02-22T17:16:58.921Z,5.80
2019-02-22T17:19:28.273Z,3.57
2019-02-22T17:21:57.608Z,3.37
2019-02-22T17:24:26.930Z,3.37
2019-02-22T17:26:56.294Z,3.10
2019-02-22T17:29:25.608Z,3.23
2019-02-22T17:31:54.940Z,3.47
2019-02-22T17:34:24.294Z,2.90
2019-02-22T17:36:53.618Z,3.23
2019-02-22T17:39:22.942Z,3.20
2019-02-22T17:41:52.294Z,3.33
2019-02-22T17:44:21.623Z,3.40
2019-02-22T17:46:57.570Z,3.30
2019-02-22T17:49:22.003Z,3.30
2019-02-22T17:51:51.342Z,3.60
2019-02-22T17:54:20.662Z,3.30
2019-02-22T17:56:50.017Z,3.13
2019-02-22T17:59:19.357Z,3.37
2019-02-22T18:01:48.682Z,2.60
2019-02-22T18:04:18.029Z,2.67
2019-02-22T18:06:47.363Z,3.30
2019-02-22T18:09:16.693Z,3.37
2019-02-22T18:11:46.048Z,3.27
2019-02-22T18:14:15.380Z,3.13
2019-02-22T18:16:44.707Z,2.93
2019-02-22T18:19:14.059Z,2.70
2019-02-22T18:21:43.390Z,3.37
2019-02-22T18:24:13.543Z,4.00
2019-02-22T18:26:42.942Z,3.17
2019-02-22T18:29:12.278Z,3.27
2019-02-22T18:31:42.392Z,3.20
2019-02-22T18:34:11.834Z,3.27
2019-02-22T18:36:41.164Z,2.83
2019-02-22T18:39:10.626Z,3.03
2019-02-22T18:41:40.000Z,4.37
2019-02-22T18:44:09.312Z,4.53
2019-02-22T18:46:38.633Z,4.70
2019-02-22T18:49:07.983Z,4.37
2019-02-22T18:51:37.331Z,7.57
2019-02-22T18:54:06.662Z,6.43
2019-02-22T18:56:36.027Z,14.40
2019-02-22T18:59:05.366Z,7.40
2019-02-22T19:01:34.704Z,3.63
2019-02-22T19:04:04.141Z,5.17
2019-02-22T19:06:33.557Z,4.87
2019-02-22T19:09:03.196Z,3.90
2019-02-22T19:11:32.689Z,3.77
2019-02-22T19:14:02.092Z,3.00
2019-02-22T19:16:31.460Z,3.37
2019-02-22T19:19:00.844Z,3.27
2019-02-22T19:21:30.201Z,3.30
2019-02-22T19:23:59.581Z,3.70
2019-02-22T19:26:28.983Z,3.83
2019-02-22T19:28:58.359Z,3.37
2019-02-22T19:31:27.785Z,3.10
2019-02-22T19:33:57.260Z,3.63
2019-02-22T19:36:26.666Z,3.13
2019-02-22T19:38:56.039Z,3.47
2019-02-22T19:41:25.510Z,3.27
2019-02-22T19:43:54.918Z,3.70
2019-02-22T19:46:24.346Z,2.73
2019-02-22T19:48:53.789Z,3.20
2019-02-22T19:51:23.152Z,3.43
2019-02-22T19:53:52.536Z,3.30
2019-02-22T19:56:22.016Z,3.40
2019-02-22T19:58:51.435Z,3.53
2019-02-22T20:01:20.783Z,3.77
2019-02-22T20:03:50.246Z,3.80
2019-02-22T20:06:19.641Z,4.03
2019-02-22T20:08:49.015Z,3.60
2019-02-22T20:11:18.487Z,3.80
2019-02-22T20:13:48.103Z,3.40
2019-02-22T20:16:17.583Z,3.70
2019-02-22T20:18:47.077Z,3.77
2019-02-22T20:21:16.540Z,3.77
2019-02-22T20:23:45.984Z,3.20
2019-02-22T20:26:15.463Z,3.20
2019-02-22T20:28:45.064Z,3.00
2019-02-22T20:31:20.437Z,4.00
2019-02-22T20:33:45.692Z,3.40
2019-02-22T20:36:15.178Z,3.77
2019-02-22T20:38:44.578Z,3.47
2019-02-22T20:41:14.014Z,3.93
2019-02-22T20:43:43.400Z,3.50
2019-02-22T20:46:12.855Z,3.40
2019-02-22T20:48:42.415Z,3.47
2019-02-22T20:51:11.854Z,3.90
2019-02-22T20:53:41.215Z,3.57
2019-02-22T20:56:10.608Z,3.50
2019-02-22T20:58:39.940Z,4.10
2019-02-22T21:01:14.894Z,4.63
2019-02-22T21:03:40.367Z,5.67
2019-02-22T21:06:09.706Z,4.63
2019-02-22T21:08:39.031Z,4.43
2019-02-22T21:11:08.430Z,3.90
2019-02-22T21:13:37.775Z,4.23
2019-02-22T21:16:07.103Z,3.90
2019-02-22T21:18:36.474Z,4.00
2019-02-22T21:21:05.812Z,3.60
2019-02-22T21:23:35.142Z,3.93
2019-02-22T21:26:04.506Z,3.87
2019-02-22T21:28:33.836Z,3.80
2019-02-22T21:31:03.174Z,3.80
2019-02-22T21:33:32.522Z,3.20
2019-02-22T21:36:01.861Z,3.27
2019-02-22T21:38:31.190Z,2.77
2019-02-22T21:41:00.559Z,3.30
2019-02-22T21:43:29.886Z,3.50
2019-02-22T21:45:59.226Z,3.50
2019-02-22T21:48:28.590Z,3.47
2019-02-22T21:50:57.922Z,3.30
2019-02-22T21:53:27.262Z,3.30
2019-02-22T21:55:56.628Z,3.40
2019-02-22T21:58:25.962Z,3.77
2019-02-22T22:00:55.299Z,4.07
2019-02-22T22:03:24.659Z,7.37
2019-02-22T22:05:53.999Z,9.53
2019-02-22T22:08:23.323Z,7.47
2019-02-22T22:10:52.747Z,8.23
2019-02-22T22:13:22.067Z,6.90
2019-02-22T22:15:51.399Z,5.03
2019-02-22T22:18:38.873Z,4.47
2019-02-22T22:21:06.531Z,5.20
2019-02-22T22:23:35.862Z,4.67
2019-02-22T22:26:05.235Z,4.97
2019-02-22T22:28:34.555Z,4.00
2019-02-22T22:31:03.880Z,5.03
2019-02-22T22:33:33.238Z,4.50
2019-02-22T22:36:02.571Z,3.83
2019-02-22T22:38:31.902Z,4.03
2019-02-22T22:41:01.268Z,3.73
2019-02-22T22:43:30.634Z,4.33
2019-02-22T22:46:00.007Z,3.33
2019-02-22T22:48:29.367Z,3.83
2019-02-22T22:50:58.698Z,3.70
2019-02-22T22:53:28.022Z,3.47
2019-02-22T22:55:57.386Z,3.30
2019-02-22T22:58:26.716Z,3.37
2019-02-22T23:01:06.431Z,3.37
2019-02-22T23:03:35.912Z,3.70
2019-02-22T23:06:05.494Z,3.27
2019-02-22T23:08:34.875Z,3.47
2019-02-22T23:11:04.346Z,3.60
2019-02-22T23:13:33.680Z,3.70
2019-02-22T23:16:03.275Z,3.67
2019-02-22T23:18:32.598Z,3.70
2019-02-22T23:21:01.942Z,3.17
2019-02-22T23:23:31.305Z,3.80
2019-02-22T23:26:00.634Z,3.20
2019-02-22T23:28:29.963Z,3.53
2019-02-22T23:30:59.328Z,4.10
2019-02-22T23:33:28.658Z,3.10
2019-02-22T23:36:00.156Z,3.50
2019-02-22T23:38:29.047Z,3.37
2019-02-22T23:40:58.374Z,3.10
2019-02-22T23:43:27.693Z,3.53
2019-02-22T23:45:57.064Z,4.20
2019-02-22T23:48:26.387Z,3.37
2019-02-22T23:50:55.705Z,3.23
2019-02-22T23:53:25.057Z,3.10
2019-02-22T23:55:54.387Z,3.37
2019-02-22T23:58:23.714Z,3.80
